createdAt,value
2023-05-05T00:00:21.544Z,88811.00
2023-05-05T00:01:21.549Z,88811.00
2023-05-05T00:02:21.575Z,88811.00
2023-05-05T00:03:21.664Z,88809.00
2023-05-05T00:04:21.589Z,88809.00
2023-05-05T00:05:21.571Z,88811.00
2023-05-05T00:06:21.554Z,88811.00
2023-05-05T00:07:21.570Z,88811.00
2023-05-05T00:08:21.557Z,88811.00
2023-05-05T00:09:21.565Z,88809.00
2023-05-05T00:10:21.563Z,88809.00
2023-05-05T00:11:21.577Z,88809.00
2023-05-05T00:12:21.582Z,88809.00
2023-05-05T00:13:21.582Z,88807.00
2023-05-05T00:14:21.585Z,88807.00
2023-05-05T00:15:21.603Z,88803.00
2023-05-05T00:16:21.646Z,88805.00
2023-05-05T00:17:21.609Z,88803.00
2023-05-05T00:18:21.605Z,88807.00
2023-05-05T00:19:21.604Z,88805.00
2023-05-05T00:20:21.614Z,88807.00
2023-05-05T00:21:21.612Z,88807.00
2023-05-05T00:22:21.619Z,88805.00
2023-05-05T00:23:21.645Z,88807.00
2023-05-05T00:24:21.640Z,88807.00
2023-05-05T00:25:21.653Z,88809.00
2023-05-05T00:26:21.654Z,88807.00
2023-05-05T00:27:21.670Z,88809.00
2023-05-05T00:28:21.677Z,88811.00
2023-05-05T00:29:21.694Z,88811.00
2023-05-05T00:30:21.697Z,88809.00
2023-05-05T00:31:21.775Z,88809.00
2023-05-05T00:32:21.778Z,88811.00
2023-05-05T00:33:21.719Z,88811.00
2023-05-05T00:34:21.725Z,88809.00
2023-05-05T00:35:21.740Z,88811.00
2023-05-05T00:36:21.754Z,88811.00
2023-05-05T00:37:21.765Z,88809.00
2023-05-05T00:38:21.779Z,88811.00
2023-05-05T00:39:21.787Z,88807.00
2023-05-05T00:40:21.801Z,88809.00
2023-05-05T00:41:21.810Z,88809.00
2023-05-05T00:42:21.824Z,88803.00
2023-05-05T00:43:21.829Z,88809.00
2023-05-05T00:44:21.835Z,88805.00
2023-05-05T00:45:21.848Z,88803.00
2023-05-05T00:46:21.897Z,88805.00
2023-05-05T00:47:21.853Z,88807.00
2023-05-05T00:48:21.860Z,88807.00
2023-05-05T00:49:21.864Z,88807.00
2023-05-05T00:50:21.861Z,88803.00
2023-05-05T00:51:21.870Z,88805.00
2023-05-05T00:52:21.885Z,88801.00
2023-05-05T00:53:21.878Z,88799.00
2023-05-05T00:54:21.875Z,88801.00
2023-05-05T00:55:21.892Z,88803.00
2023-05-05T00:56:21.903Z,88801.00
2023-05-05T00:57:21.889Z,88801.00
2023-05-05T00:58:21.897Z,88801.00
2023-05-05T00:59:21.898Z,88795.00
2023-05-05T01:00:21.898Z,88795.00
2023-05-05T01:01:21.933Z,88795.00
2023-05-05T01:02:21.932Z,88795.00
2023-05-05T01:03:21.976Z,88795.00
2023-05-05T01:04:21.928Z,88795.00
2023-05-05T01:05:21.933Z,88793.00
2023-05-05T01:06:21.942Z,88793.00
2023-05-05T01:07:21.950Z,88795.00
2023-05-05T01:08:21.952Z,88792.00
2023-05-05T01:09:21.957Z,88793.00
2023-05-05T01:10:22.363Z,88792.00
2023-05-05T01:11:21.982Z,88793.00
2023-05-05T01:12:21.979Z,88792.00
2023-05-05T01:13:21.980Z,88792.00
2023-05-05T01:14:21.988Z,88792.00
2023-05-05T01:15:21.996Z,88792.00
2023-05-05T01:16:22.189Z,88790.00
2023-05-05T01:17:22.027Z,88792.00
2023-05-05T01:18:22.017Z,88792.00
2023-05-05T01:19:22.047Z,88793.00
2023-05-05T01:20:22.057Z,88793.00
2023-05-05T01:21:22.066Z,88795.00
2023-05-05T01:22:22.075Z,88797.00
2023-05-05T01:23:22.086Z,88792.00
2023-05-05T01:24:22.096Z,88793.00
2023-05-05T01:25:22.109Z,88792.00
2023-05-05T01:26:22.132Z,88792.00
2023-05-05T01:27:22.144Z,88792.00
2023-05-05T01:28:22.145Z,88790.00
2023-05-05T01:29:22.164Z,88793.00
2023-05-05T01:30:22.172Z,88792.00
2023-05-05T01:31:22.217Z,88795.00
2023-05-05T01:32:22.251Z,88793.00
2023-05-05T01:33:22.223Z,88792.00
2023-05-05T01:34:22.235Z,88793.00
2023-05-05T01:35:22.252Z,88793.00
2023-05-05T01:36:22.252Z,88790.00
2023-05-05T01:37:22.272Z,88792.00
2023-05-05T01:38:22.265Z,88790.00
2023-05-05T01:39:22.277Z,88790.00
2023-05-05T01:40:22.289Z,88790.00
2023-05-05T01:41:22.300Z,88792.00
2023-05-05T01:42:22.318Z,88792.00
2023-05-05T01:43:22.330Z,88790.00
2023-05-05T01:44:22.326Z,88795.00
2023-05-05T01:45:22.341Z,88792.00
2023-05-05T01:46:22.481Z,88795.00
2023-05-05T01:47:22.375Z,88799.00
2023-05-05T01:48:22.371Z,88797.00
2023-05-05T01:49:22.382Z,88795.00
2023-05-05T01:50:22.402Z,88797.00
2023-05-05T01:51:22.412Z,88797.00
2023-05-05T01:52:22.425Z,88801.00
2023-05-05T01:53:22.425Z,88801.00
2023-05-05T01:54:22.439Z,88801.00
2023-05-05T01:55:22.447Z,88801.00
2023-05-05T01:56:22.459Z,88805.00
2023-05-05T01:57:22.463Z,88807.00
2023-05-05T01:58:22.485Z,88805.00
2023-05-05T01:59:22.491Z,88805.00
2023-05-05T02:00:22.510Z,88807.00
2023-05-05T02:01:22.573Z,88807.00
2023-05-05T02:02:22.559Z,88809.00
2023-05-05T02:03:22.604Z,88807.00
2023-05-05T02:04:22.716Z,88809.00
2023-05-05T02:05:22.579Z,88809.00
2023-05-05T02:06:22.583Z,88805.00
2023-05-05T02:07:22.613Z,88809.00
2023-05-05T02:08:22.635Z,88807.00
2023-05-05T02:09:22.636Z,88805.00
2023-05-05T02:10:22.643Z,88805.00
2023-05-05T02:11:22.655Z,88803.00
2023-05-05T02:12:22.667Z,88803.00
2023-05-05T02:13:22.728Z,88807.00
2023-05-05T02:14:22.698Z,88807.00
2023-05-05T02:15:22.707Z,88809.00
2023-05-05T02:16:22.776Z,88807.00
2023-05-05T02:17:22.768Z,88807.00
2023-05-05T02:18:22.740Z,88807.00
2023-05-05T02:19:22.755Z,88807.00
2023-05-05T02:20:22.761Z,88809.00
2023-05-05T02:21:22.785Z,88809.00
2023-05-05T02:22:22.786Z,88811.00
2023-05-05T02:23:22.796Z,88811.00
2023-05-05T02:24:22.810Z,88811.00
2023-05-05T02:25:22.818Z,88807.00
2023-05-05T02:26:22.839Z,88809.00
2023-05-05T02:27:22.852Z,88809.00
2023-05-05T02:28:22.864Z,88809.00
2023-05-05T02:29:22.884Z,88807.00
2023-05-05T02:30:22.913Z,88807.00
2023-05-05T02:31:22.976Z,88807.00
2023-05-05T02:32:22.995Z,88809.00
2023-05-05T02:33:22.932Z,88809.00
2023-05-05T02:34:22.935Z,88811.00
2023-05-05T02:35:22.974Z,88807.00
2023-05-05T02:36:22.987Z,88809.00
2023-05-05T02:37:22.978Z,88811.00
2023-05-05T02:38:22.999Z,88813.00
2023-05-05T02:39:23.005Z,88807.00
2023-05-05T02:40:23.017Z,88811.00
2023-05-05T02:41:23.022Z,88813.00
2023-05-05T02:42:23.026Z,88811.00
2023-05-05T02:43:23.145Z,88815.00
2023-05-05T02:44:23.050Z,88813.00
2023-05-05T02:45:23.084Z,88813.00
2023-05-05T02:46:23.133Z,88817.00
2023-05-05T02:47:23.099Z,88811.00
2023-05-05T02:48:23.123Z,88809.00
2023-05-05T02:49:23.124Z,88809.00
2023-05-05T02:50:23.131Z,88813.00
2023-05-05T02:51:23.148Z,88813.00
2023-05-05T02:52:23.173Z,88817.00
2023-05-05T02:53:23.200Z,88813.00
2023-05-05T02:54:23.237Z,88813.00
2023-05-05T02:55:23.255Z,88813.00
2023-05-05T02:56:23.283Z,88813.00
2023-05-05T02:57:23.316Z,88813.00
2023-05-05T02:58:23.327Z,88813.00
2023-05-05T02:59:23.357Z,88815.00
2023-05-05T03:00:23.380Z,88815.00
2023-05-05T03:01:23.455Z,88813.00
2023-05-05T03:02:23.530Z,88813.00
2023-05-05T03:03:23.585Z,88815.00
2023-05-05T03:04:23.518Z,88813.00
2023-05-05T03:05:23.559Z,88813.00
2023-05-05T03:06:23.613Z,88811.00
2023-05-05T03:07:23.680Z,88809.00
2023-05-05T03:08:23.751Z,88811.00
2023-05-05T03:09:23.821Z,88813.00
2023-05-05T03:10:23.911Z,88809.00
2023-05-05T03:11:23.994Z,88805.00
2023-05-05T03:12:24.097Z,88809.00
2023-05-05T03:13:24.192Z,88809.00
2023-05-05T03:14:24.259Z,88805.00
2023-05-05T03:15:24.314Z,88805.00
2023-05-05T03:16:24.402Z,88805.00
2023-05-05T03:17:24.391Z,88803.00
2023-05-05T03:18:24.425Z,88801.00
2023-05-05T03:19:24.487Z,88803.00
2023-05-05T03:20:24.530Z,88803.00
2023-05-05T03:21:24.558Z,88797.00
2023-05-05T03:22:24.619Z,88799.00
2023-05-05T03:23:24.667Z,88801.00
2023-05-05T03:24:24.677Z,88799.00
2023-05-05T03:25:24.725Z,88799.00
2023-05-05T03:26:24.756Z,88797.00
2023-05-05T03:27:24.796Z,88795.00
2023-05-05T03:28:24.829Z,88795.00
2023-05-05T03:29:24.864Z,88792.00
2023-05-05T03:30:24.925Z,88792.00
2023-05-05T03:31:24.971Z,88795.00
2023-05-05T03:32:24.985Z,88793.00
2023-05-05T03:33:24.986Z,88795.00
2023-05-05T03:34:25.029Z,88793.00
2023-05-05T03:35:25.058Z,88793.00
2023-05-05T03:36:26.127Z,88793.00
2023-05-05T03:37:25.152Z,88792.00
2023-05-05T03:38:25.238Z,88792.00
2023-05-05T03:39:25.217Z,88795.00
2023-05-05T03:40:36.188Z,88793.00
2023-05-05T03:41:26.294Z,88792.00
2023-05-05T03:42:25.336Z,88795.00
2023-05-05T03:43:25.362Z,88795.00
2023-05-05T03:44:25.400Z,88795.00
2023-05-05T03:45:25.412Z,88799.00
2023-05-05T03:46:25.446Z,88795.00
2023-05-05T03:47:25.476Z,88792.00
2023-05-05T03:48:25.515Z,88792.00
2023-05-05T03:49:25.549Z,88792.00
2023-05-05T03:50:25.588Z,88797.00
2023-05-05T03:51:25.633Z,88795.00
2023-05-05T03:52:25.678Z,88793.00
2023-05-05T03:53:25.718Z,88793.00
2023-05-05T03:54:25.751Z,88790.00
2023-05-05T03:55:25.812Z,88792.00
2023-05-05T03:56:25.831Z,88790.00
2023-05-05T03:57:25.869Z,88790.00
2023-05-05T03:58:25.911Z,88787.00
2023-05-05T03:59:25.947Z,88787.00
2023-05-05T04:00:25.986Z,88787.00
2023-05-05T04:01:26.028Z,88792.00
2023-05-05T04:02:26.134Z,88785.00
2023-05-05T04:03:26.318Z,88784.00
2023-05-05T04:04:26.250Z,88782.00
2023-05-05T04:05:26.282Z,88785.00
2023-05-05T04:06:26.329Z,88782.00
2023-05-05T04:07:26.357Z,88782.00
2023-05-05T04:08:26.402Z,88785.00
2023-05-05T04:09:26.440Z,88787.00
2023-05-05T04:10:26.486Z,88787.00
2023-05-05T04:11:26.505Z,88787.00
2023-05-05T04:12:26.540Z,88787.00
2023-05-05T04:13:26.602Z,88787.00
2023-05-05T04:14:26.626Z,88790.00
2023-05-05T04:15:26.656Z,88793.00
2023-05-05T04:16:26.746Z,88793.00
2023-05-05T04:17:26.760Z,88793.00
2023-05-05T04:18:26.784Z,88793.00
2023-05-05T04:19:26.820Z,88797.00
2023-05-05T04:20:26.867Z,88795.00
2023-05-05T04:21:26.894Z,88797.00
2023-05-05T04:22:26.935Z,88795.00
2023-05-05T04:23:26.969Z,88795.00
2023-05-05T04:24:27.006Z,88795.00
2023-05-05T04:25:27.054Z,88799.00
2023-05-05T04:26:27.091Z,88797.00
2023-05-05T04:27:27.126Z,88801.00
2023-05-05T04:28:27.177Z,88799.00
2023-05-05T04:29:27.220Z,88803.00
2023-05-05T04:30:27.304Z,88803.00
2023-05-05T04:31:27.371Z,88803.00
2023-05-05T04:32:27.457Z,88801.00
2023-05-05T04:33:27.539Z,88801.00
2023-05-05T04:34:27.632Z,88801.00
2023-05-05T04:35:27.704Z,88799.00
2023-05-05T04:36:27.774Z,88799.00
2023-05-05T04:37:27.897Z,88799.00
2023-05-05T04:38:28.047Z,88797.00
2023-05-05T04:39:28.023Z,88797.00
2023-05-05T04:40:28.106Z,88799.00
2023-05-05T04:41:30.014Z,88797.00
2023-05-05T04:42:28.284Z,88797.00
2023-05-05T04:43:28.368Z,88795.00
2023-05-05T04:44:28.456Z,88795.00
2023-05-05T04:45:28.544Z,88793.00
2023-05-05T04:46:28.694Z,88793.00
2023-05-05T04:47:28.751Z,88792.00
2023-05-05T04:48:28.836Z,88793.00
2023-05-05T04:49:28.920Z,88793.00
2023-05-05T04:50:29.027Z,88793.00
2023-05-05T04:51:29.130Z,88793.00
2023-05-05T04:52:29.216Z,88790.00
2023-05-05T04:53:29.322Z,88792.00
2023-05-05T04:54:29.416Z,88792.00
2023-05-05T04:55:29.508Z,88792.00
2023-05-05T04:56:29.616Z,88790.00
2023-05-05T04:57:29.727Z,88790.00
2023-05-05T04:58:29.822Z,88793.00
2023-05-05T04:59:29.903Z,88793.00
2023-05-05T05:00:30.011Z,88793.00
2023-05-05T05:01:30.075Z,88795.00
2023-05-05T05:02:30.151Z,88793.00
2023-05-05T05:03:30.189Z,88797.00
2023-05-05T05:04:30.188Z,88799.00
2023-05-05T05:05:30.217Z,88801.00
2023-05-05T05:06:30.261Z,88803.00
2023-05-05T05:07:30.310Z,88805.00
2023-05-05T05:08:30.357Z,88805.00
2023-05-05T05:09:30.387Z,88805.00
2023-05-05T05:10:30.425Z,88805.00
2023-05-05T05:11:30.454Z,88803.00
2023-05-05T05:12:30.544Z,88801.00
2023-05-05T05:13:30.527Z,88799.00
2023-05-05T05:14:30.566Z,88801.00
2023-05-05T05:15:30.602Z,88801.00
2023-05-05T05:16:30.712Z,88799.00
2023-05-05T05:17:30.674Z,88797.00
2023-05-05T05:18:30.701Z,88801.00
2023-05-05T05:19:30.719Z,88801.00
2023-05-05T05:20:30.763Z,88803.00
2023-05-05T05:21:30.785Z,88803.00
2023-05-05T05:22:30.827Z,88805.00
2023-05-05T05:23:30.862Z,88801.00
2023-05-05T05:24:30.907Z,88801.00
2023-05-05T05:25:30.916Z,88801.00
2023-05-05T05:26:30.963Z,88799.00
2023-05-05T05:27:30.964Z,88799.00
2023-05-05T05:28:30.997Z,88801.00
2023-05-05T05:29:31.016Z,88801.00
2023-05-05T05:30:31.085Z,88801.00
2023-05-05T05:31:31.168Z,88801.00
2023-05-05T05:32:31.175Z,88799.00
2023-05-05T05:33:31.231Z,88801.00
2023-05-05T05:34:31.194Z,88799.00
2023-05-05T05:35:31.219Z,88799.00
2023-05-05T05:36:31.247Z,88799.00
2023-05-05T05:37:31.577Z,88801.00
2023-05-05T05:38:31.317Z,88797.00
2023-05-05T05:39:31.323Z,88799.00
2023-05-05T05:40:31.908Z,88803.00
2023-05-05T05:41:31.469Z,88799.00
2023-05-05T05:42:31.443Z,88801.00
2023-05-05T05:43:31.446Z,88801.00
2023-05-05T05:44:31.479Z,88801.00
2023-05-05T05:45:31.501Z,88801.00
2023-05-05T05:46:31.841Z,88799.00
2023-05-05T05:47:31.599Z,88801.00
2023-05-05T05:48:31.624Z,88801.00
2023-05-05T05:49:31.632Z,88801.00
2023-05-05T05:50:31.714Z,88805.00
2023-05-05T05:51:31.694Z,88803.00
2023-05-05T05:52:31.724Z,88805.00
2023-05-05T05:53:31.772Z,88803.00
2023-05-05T05:54:31.797Z,88803.00
2023-05-05T05:55:31.819Z,88805.00
2023-05-05T05:56:31.858Z,88803.00
2023-05-05T05:57:31.893Z,88803.00
2023-05-05T05:58:31.937Z,88803.00
2023-05-05T05:59:31.950Z,88803.00
2023-05-05T06:00:31.990Z,88803.00
2023-05-05T06:01:32.012Z,88807.00
2023-05-05T06:02:32.122Z,88805.00
2023-05-05T06:03:32.158Z,88801.00
2023-05-05T06:04:32.189Z,88803.00
2023-05-05T06:05:32.138Z,88803.00
2023-05-05T06:06:32.185Z,88801.00
2023-05-05T06:07:32.182Z,88799.00
2023-05-05T06:08:32.229Z,88801.00
2023-05-05T06:09:32.316Z,88799.00
2023-05-05T06:10:32.679Z,88799.00
2023-05-05T06:11:32.479Z,88797.00
2023-05-05T06:12:32.519Z,88799.00
2023-05-05T06:13:32.552Z,88795.00
2023-05-05T06:14:32.575Z,88797.00
2023-05-05T06:15:32.584Z,88795.00
2023-05-05T06:16:32.703Z,88795.00
2023-05-05T06:17:32.653Z,88795.00
2023-05-05T06:18:32.678Z,88787.00
2023-05-05T06:19:32.688Z,88790.00
2023-05-05T06:20:32.728Z,88792.00
2023-05-05T06:21:32.752Z,88792.00
2023-05-05T06:22:32.795Z,88792.00
2023-05-05T06:23:32.814Z,88792.00
2023-05-05T06:24:32.875Z,88792.00
2023-05-05T06:25:32.966Z,88790.00
2023-05-05T06:26:33.069Z,88792.00
2023-05-05T06:27:33.158Z,88792.00
2023-05-05T06:28:33.363Z,88790.00
2023-05-05T06:29:33.375Z,88785.00
2023-05-05T06:30:33.452Z,88785.00
2023-05-05T06:31:33.569Z,88785.00
2023-05-05T06:32:33.618Z,88782.00
2023-05-05T06:33:33.704Z,88782.00
2023-05-05T06:34:33.704Z,88780.00
2023-05-05T06:35:33.737Z,88780.00
2023-05-05T06:36:33.795Z,88780.00
2023-05-05T06:37:33.786Z,88771.00
2023-05-05T06:38:33.805Z,88778.00
2023-05-05T06:39:33.833Z,88778.00
2023-05-05T06:40:33.873Z,88780.00
2023-05-05T06:41:33.884Z,88782.00
2023-05-05T06:42:33.932Z,88780.00
2023-05-05T06:43:33.997Z,88778.00
2023-05-05T06:44:34.037Z,88778.00
2023-05-05T06:45:34.088Z,88771.00
2023-05-05T06:46:34.151Z,88778.00
2023-05-05T06:47:34.172Z,88771.00
2023-05-05T06:48:34.211Z,88771.00
2023-05-05T06:49:34.251Z,88771.00
2023-05-05T06:50:34.411Z,88769.00
2023-05-05T06:51:34.339Z,88765.00
2023-05-05T06:52:34.374Z,88769.00
2023-05-05T06:53:34.410Z,88767.00
2023-05-05T06:54:34.445Z,88767.00
2023-05-05T06:55:34.469Z,88765.00
2023-05-05T06:56:34.513Z,88769.00
2023-05-05T06:57:34.551Z,88767.00
2023-05-05T06:58:34.573Z,88765.00
2023-05-05T06:59:34.604Z,88769.00
2023-05-05T07:00:34.689Z,88765.00
2023-05-05T07:01:34.662Z,88763.00
2023-05-05T07:02:34.729Z,88763.00
2023-05-05T07:03:34.780Z,88765.00
2023-05-05T07:04:34.804Z,88763.00
2023-05-05T07:05:34.828Z,88761.00
2023-05-05T07:06:34.943Z,88761.00
2023-05-05T07:07:34.914Z,88761.00
2023-05-05T07:08:34.966Z,88759.00
2023-05-05T07:09:34.993Z,88761.00
2023-05-05T07:10:35.035Z,88761.00
2023-05-05T07:11:35.089Z,88763.00
2023-05-05T07:12:35.139Z,88763.00
2023-05-05T07:13:35.166Z,88763.00
2023-05-05T07:14:35.193Z,88761.00
2023-05-05T07:15:35.272Z,88763.00
2023-05-05T07:16:35.327Z,88761.00
2023-05-05T07:17:35.316Z,88765.00
2023-05-05T07:18:35.327Z,88761.00
2023-05-05T07:19:35.491Z,88759.00
2023-05-05T07:20:35.422Z,88759.00
2023-05-05T07:21:35.445Z,88757.00
2023-05-05T07:22:35.683Z,88755.00
2023-05-05T07:23:35.525Z,88755.00
2023-05-05T07:24:35.549Z,88757.00
2023-05-05T07:25:35.585Z,88751.00
2023-05-05T07:26:35.615Z,88755.00
2023-05-05T07:27:35.652Z,88753.00
2023-05-05T07:28:35.700Z,88749.00
2023-05-05T07:29:35.717Z,88749.00
2023-05-05T07:30:35.755Z,88749.00
2023-05-05T07:31:35.804Z,88747.00
2023-05-05T07:32:35.856Z,88747.00
2023-05-05T07:33:35.872Z,88747.00
2023-05-05T07:34:35.898Z,88745.00
2023-05-05T07:35:35.925Z,88747.00
2023-05-05T07:36:35.951Z,88749.00
2023-05-05T07:37:35.970Z,88745.00
2023-05-05T07:38:36.082Z,88747.00
2023-05-05T07:39:36.047Z,88745.00
2023-05-05T07:40:36.051Z,88747.00
2023-05-05T07:41:36.088Z,88747.00
2023-05-05T07:42:36.132Z,88747.00
2023-05-05T07:43:36.156Z,88747.00
2023-05-05T07:44:36.166Z,88743.00
2023-05-05T07:45:36.185Z,88741.00
2023-05-05T07:46:36.363Z,88739.00
2023-05-05T07:47:36.303Z,88737.00
2023-05-05T07:48:38.341Z,88735.00
2023-05-05T07:49:36.274Z,88733.00
2023-05-05T07:50:36.277Z,88733.00
2023-05-05T07:51:36.298Z,88729.00
2023-05-05T07:52:46.661Z,88729.00
2023-05-05T07:53:37.347Z,88727.00
2023-05-05T07:54:36.414Z,88727.00
2023-05-05T07:55:36.380Z,88725.00
2023-05-05T07:56:36.397Z,88729.00
2023-05-05T07:57:36.420Z,88725.00
2023-05-05T07:58:36.447Z,88725.00
2023-05-05T07:59:36.470Z,88721.00
2023-05-05T08:00:36.507Z,88721.00
2023-05-05T08:01:36.521Z,88719.00
2023-05-05T08:02:36.636Z,88717.00
2023-05-05T08:03:36.673Z,88717.00
2023-05-05T08:04:36.630Z,88717.00
2023-05-05T08:05:36.623Z,88716.00
2023-05-05T08:06:36.645Z,88716.00
2023-05-05T08:07:36.670Z,88716.00
2023-05-05T08:08:36.709Z,88716.00
2023-05-05T08:09:36.722Z,88712.00
2023-05-05T08:10:36.863Z,88712.00
2023-05-05T08:11:36.780Z,88714.00
2023-05-05T08:12:36.914Z,88714.00
2023-05-05T08:13:36.961Z,88714.00
2023-05-05T08:14:37.058Z,88710.00
2023-05-05T08:15:37.143Z,88710.00
2023-05-05T08:16:37.295Z,88710.00
2023-05-05T08:17:37.406Z,88710.00
2023-05-05T08:18:37.439Z,88708.00
2023-05-05T08:19:37.523Z,88706.00
2023-05-05T08:20:37.634Z,88708.00
2023-05-05T08:21:37.728Z,88706.00
2023-05-05T08:22:37.778Z,88704.00
2023-05-05T08:23:37.882Z,88708.00
2023-05-05T08:24:37.969Z,88708.00
2023-05-05T08:25:38.048Z,88704.00
2023-05-05T08:26:38.221Z,88704.00
2023-05-05T08:27:38.267Z,88706.00
2023-05-05T08:28:38.315Z,88706.00
2023-05-05T08:29:38.409Z,88706.00
2023-05-05T08:30:38.552Z,88702.00
2023-05-05T08:31:38.605Z,88704.00
2023-05-05T08:32:38.710Z,88704.00
2023-05-05T08:33:38.624Z,88704.00
2023-05-05T08:34:38.625Z,88702.00
2023-05-05T08:35:38.638Z,88698.00
2023-05-05T08:36:38.675Z,88694.00
2023-05-05T08:37:38.705Z,88694.00
2023-05-05T08:38:38.715Z,88694.00
2023-05-05T08:39:38.740Z,88692.00
2023-05-05T08:40:38.752Z,88694.00
2023-05-05T08:41:38.779Z,88690.00
2023-05-05T08:42:39.575Z,88688.00
2023-05-05T08:43:38.814Z,88690.00
2023-05-05T08:44:38.832Z,88686.00
2023-05-05T08:45:38.854Z,88686.00
2023-05-05T08:46:38.908Z,88686.00
2023-05-05T08:47:39.014Z,88684.00
2023-05-05T08:48:38.936Z,88686.00
2023-05-05T08:49:38.940Z,88684.00
2023-05-05T08:50:38.964Z,88682.00
2023-05-05T08:51:38.981Z,88684.00
2023-05-05T08:52:39.052Z,88682.00
2023-05-05T08:53:39.044Z,88680.00
2023-05-05T08:54:39.068Z,88682.00
2023-05-05T08:55:39.093Z,88682.00
2023-05-05T08:56:39.148Z,88680.00
2023-05-05T08:57:39.219Z,88682.00
2023-05-05T08:58:39.349Z,88682.00
2023-05-05T08:59:39.356Z,88680.00
2023-05-05T09:00:39.452Z,88682.00
2023-05-05T09:01:39.462Z,88684.00
2023-05-05T09:02:39.608Z,88678.00
2023-05-05T09:03:39.628Z,88678.00
2023-05-05T09:04:39.646Z,88682.00
2023-05-05T09:05:39.709Z,88682.00
2023-05-05T09:06:39.814Z,88680.00
2023-05-05T09:07:39.852Z,88680.00
2023-05-05T09:08:39.884Z,88678.00
2023-05-05T09:09:39.898Z,88678.00
2023-05-05T09:10:39.920Z,88678.00
2023-05-05T09:11:39.928Z,88675.00
2023-05-05T09:12:39.995Z,88671.00
2023-05-05T09:13:39.969Z,88673.00
2023-05-05T09:14:40.092Z,88671.00
2023-05-05T09:15:40.050Z,88671.00
2023-05-05T09:16:40.169Z,88667.00
2023-05-05T09:17:40.113Z,88669.00
2023-05-05T09:18:40.106Z,88667.00
2023-05-05T09:19:40.112Z,88665.00
2023-05-05T09:20:40.141Z,88663.00
2023-05-05T09:21:40.219Z,88665.00
2023-05-05T09:22:40.294Z,88663.00
2023-05-05T09:23:40.317Z,88663.00
2023-05-05T09:24:40.349Z,88661.00
2023-05-05T09:25:40.363Z,88663.00
2023-05-05T09:26:40.372Z,88663.00
2023-05-05T09:27:40.393Z,88661.00
2023-05-05T09:28:40.403Z,88661.00
2023-05-05T09:29:40.434Z,88663.00
2023-05-05T09:30:40.542Z,88659.00
2023-05-05T09:31:40.502Z,88661.00
2023-05-05T09:32:40.483Z,88659.00
2023-05-05T09:33:40.508Z,88663.00
2023-05-05T09:34:40.581Z,88659.00
2023-05-05T09:35:40.584Z,88657.00
2023-05-05T09:36:40.616Z,88657.00
2023-05-05T09:37:40.647Z,88659.00
2023-05-05T09:38:40.666Z,88659.00
2023-05-05T09:39:40.659Z,88659.00
2023-05-05T09:40:40.693Z,88653.00
2023-05-05T09:41:40.700Z,88657.00
2023-05-05T09:42:40.730Z,88657.00
2023-05-05T09:43:40.732Z,88655.00
2023-05-05T09:44:40.793Z,88657.00
2023-05-05T09:45:40.774Z,88659.00
2023-05-05T09:46:40.937Z,88659.00
2023-05-05T09:47:40.985Z,88657.00
2023-05-05T09:48:40.965Z,88659.00
2023-05-05T09:49:40.924Z,88661.00
2023-05-05T09:50:40.997Z,88657.00
2023-05-05T09:51:40.956Z,88659.00
2023-05-05T09:52:40.980Z,88659.00
2023-05-05T09:53:40.989Z,88653.00
2023-05-05T09:54:41.000Z,88655.00
2023-05-05T09:55:41.040Z,88655.00
2023-05-05T09:56:41.045Z,88655.00
2023-05-05T09:57:41.064Z,88655.00
2023-05-05T09:58:41.112Z,88655.00
2023-05-05T09:59:41.062Z,88653.00
2023-05-05T10:00:41.064Z,88653.00
2023-05-05T10:01:41.092Z,88651.00
2023-05-05T10:02:41.216Z,88653.00
2023-05-05T10:03:41.105Z,88655.00
2023-05-05T10:04:41.136Z,88655.00
2023-05-05T10:05:41.133Z,88653.00
2023-05-05T10:06:41.141Z,88655.00
2023-05-05T10:07:41.171Z,88655.00
2023-05-05T10:08:41.160Z,88653.00
2023-05-05T10:09:41.154Z,88653.00
2023-05-05T10:10:41.153Z,88655.00
2023-05-05T10:11:41.158Z,88651.00
2023-05-05T10:12:41.220Z,88649.00
2023-05-05T10:13:41.152Z,88649.00
2023-05-05T10:14:41.157Z,88647.00
2023-05-05T10:15:41.160Z,88647.00
2023-05-05T10:16:41.191Z,88645.00
2023-05-05T10:17:44.052Z,88645.00
2023-05-05T10:18:42.338Z,88645.00
2023-05-05T10:19:41.159Z,88641.00
2023-05-05T10:20:41.159Z,88639.00
2023-05-05T10:21:42.058Z,88641.00
2023-05-05T10:22:41.139Z,88639.00
2023-05-05T10:23:41.153Z,88637.00
2023-05-05T10:24:41.172Z,88637.00
2023-05-05T10:25:41.171Z,88639.00
2023-05-05T10:26:41.184Z,88637.00
2023-05-05T10:27:41.166Z,88635.00
2023-05-05T10:28:41.150Z,88633.00
2023-05-05T10:29:41.158Z,88635.00
2023-05-05T10:30:41.147Z,88633.00
2023-05-05T10:31:41.169Z,88631.00
2023-05-05T10:33:41.222Z,88631.00
2023-05-05T10:34:41.275Z,88627.00
2023-05-05T10:35:41.160Z,88629.00
2023-05-05T10:36:41.158Z,88623.00
2023-05-05T10:37:41.168Z,88623.00
2023-05-05T10:38:41.150Z,88622.00
2023-05-05T10:39:41.157Z,88620.00
2023-05-05T10:40:41.164Z,88616.00
2023-05-05T10:41:41.155Z,88614.00
2023-05-05T10:42:41.145Z,88610.00
2023-05-05T10:43:41.139Z,88612.00
2023-05-05T10:44:41.139Z,88610.00
2023-05-05T10:45:41.185Z,88610.00
2023-05-05T10:46:41.285Z,88608.00
2023-05-05T10:47:41.159Z,88608.00
2023-05-05T10:48:41.187Z,88606.00
2023-05-05T10:49:41.115Z,88604.00
2023-05-05T10:50:41.169Z,88602.00
2023-05-05T10:51:41.382Z,88600.00
2023-05-05T10:52:41.093Z,88600.00
2023-05-05T10:53:41.124Z,88600.00
2023-05-05T10:54:41.095Z,88598.00
2023-05-05T10:55:41.105Z,88598.00
2023-05-05T10:56:41.094Z,88594.00
2023-05-05T10:57:41.085Z,88596.00
2023-05-05T10:58:58.372Z,88594.00
2023-05-05T10:59:42.117Z,88590.00
2023-05-05T11:00:41.109Z,88588.00
2023-05-05T11:01:41.076Z,88588.00
2023-05-05T11:02:41.111Z,88584.00
2023-05-05T11:03:41.104Z,88584.00
2023-05-05T11:04:41.077Z,88582.00
2023-05-05T11:05:41.078Z,88582.00
2023-05-05T11:06:41.207Z,88582.00
2023-05-05T11:07:41.077Z,88578.00
2023-05-05T11:08:41.125Z,88578.00
2023-05-05T11:09:41.156Z,88575.00
2023-05-05T11:10:41.201Z,88576.00
2023-05-05T11:11:41.259Z,88578.00
2023-05-05T11:12:41.363Z,88575.00
2023-05-05T11:13:41.361Z,88573.00
2023-05-05T11:14:41.414Z,88573.00
2023-05-05T11:15:41.511Z,88573.00
2023-05-05T11:16:41.595Z,88567.00
2023-05-05T11:17:41.611Z,88563.00
2023-05-05T11:18:41.639Z,88567.00
2023-05-05T11:19:41.700Z,88561.00
2023-05-05T11:20:41.740Z,88559.00
2023-05-05T11:21:41.822Z,88561.00
2023-05-05T11:22:41.877Z,88553.00
2023-05-05T11:23:41.943Z,88551.00
2023-05-05T11:24:42.011Z,88547.00
2023-05-05T11:25:42.141Z,88547.00
2023-05-05T11:26:42.141Z,88551.00
2023-05-05T11:27:42.210Z,88549.00
2023-05-05T11:28:42.274Z,88551.00
2023-05-05T11:29:42.357Z,88551.00
2023-05-05T11:30:42.434Z,88553.00
2023-05-05T11:31:42.520Z,88551.00
2023-05-05T11:32:42.551Z,88551.00
2023-05-05T11:33:42.606Z,88547.00
2023-05-05T11:34:42.668Z,88547.00
2023-05-05T11:35:42.730Z,88547.00
2023-05-05T11:36:42.797Z,88545.00
2023-05-05T11:37:42.876Z,88545.00
2023-05-05T11:38:43.006Z,88543.00
2023-05-05T11:39:43.011Z,88539.00
2023-05-05T11:40:43.055Z,88541.00
2023-05-05T11:41:43.125Z,88539.00
2023-05-05T11:42:43.192Z,88537.00
2023-05-05T11:43:43.194Z,88533.00
2023-05-05T11:44:43.197Z,88537.00
2023-05-05T11:45:43.215Z,88539.00